sensor_id;sensor_type;location;lat;lon;timestamp;temperature;humidity
16114;DHT22;8161;-33.910;151.156;2023-05-29T00:01:58;17.90;99.90
16114;DHT22;8161;-33.910;151.156;2023-05-29T00:04:25;17.80;99.90
16114;DHT22;8161;-33.910;151.156;2023-05-29T00:06:53;18.40;99.90
16114;DHT22;8161;-33.910;151.156;2023-05-29T00:09:20;18.10;99.90
16114;DHT22;8161;-33.910;151.156;2023-05-29T00:11:47;18.40;99.90
16114;DHT22;8161;-33.910;151.156;2023-05-29T00:14:19;18.30;99.90
16114;DHT22;8161;-33.910;151.156;2023-05-29T00:16:47;18.50;99.90
16114;DHT22;8161;-33.910;151.156;2023-05-29T00:19:15;18.80;99.90
16114;DHT22;8161;-33.910;151.156;2023-05-29T00:21:51;18.90;99.90
16114;DHT22;8161;-33.910;151.156;2023-05-29T00:24:18;18.60;99.90
16114;DHT22;8161;-33.910;151.156;2023-05-29T00:26:51;18.60;99.90
16114;DHT22;8161;-33.910;151.156;2023-05-29T00:29:18;18.70;99.90
16114;DHT22;8161;-33.910;151.156;2023-05-29T00:34:14;19.50;99.90
16114;DHT22;8161;-33.910;151.156;2023-05-29T00:36:42;19.10;99.90
16114;DHT22;8161;-33.910;151.156;2023-05-29T00:39:09;19.60;99.90
16114;DHT22;8161;-33.910;151.156;2023-05-29T00:41:37;19.40;99.90
16114;DHT22;8161;-33.910;151.156;2023-05-29T00:44:04;19.50;99.90
16114;DHT22;8161;-33.910;151.156;2023-05-29T00:46:32;20.20;99.90
16114;DHT22;8161;-33.910;151.156;2023-05-29T00:49:00;19.50;99.90
16114;DHT22;8161;-33.910;151.156;2023-05-29T00:51:28;19.90;99.90
16114;DHT22;8161;-33.910;151.156;2023-05-29T00:53:58;19.70;99.90
16114;DHT22;8161;-33.910;151.156;2023-05-29T00:56:26;19.90;99.90
16114;DHT22;8161;-33.910;151.156;2023-05-29T00:58:53;19.80;99.90
16114;DHT22;8161;-33.910;151.156;2023-05-29T01:01:21;19.60;99.90
16114;DHT22;8161;-33.910;151.156;2023-05-29T01:03:48;19.90;99.90
16114;DHT22;8161;-33.910;151.156;2023-05-29T01:06:19;20.00;99.90
16114;DHT22;8161;-33.910;151.156;2023-05-29T01:08:47;20.30;99.90
16114;DHT22;8161;-33.910;151.156;2023-05-29T01:13:57;19.90;99.90
16114;DHT22;8161;-33.910;151.156;2023-05-29T01:19:30;20.10;99.90
16114;DHT22;8161;-33.910;151.156;2023-05-29T01:27:19;20.00;99.90
16114;DHT22;8161;-33.910;151.156;2023-05-29T01:29:50;20.50;99.90
16114;DHT22;8161;-33.910;151.156;2023-05-29T01:32:22;20.60;99.90
16114;DHT22;8161;-33.910;151.156;2023-05-29T01:34:49;20.40;99.90
16114;DHT22;8161;-33.910;151.156;2023-05-29T01:37:17;20.60;99.90
16114;DHT22;8161;-33.910;151.156;2023-05-29T01:39:44;20.50;99.90
16114;DHT22;8161;-33.910;151.156;2023-05-29T01:42:12;20.60;99.90
16114;DHT22;8161;-33.910;151.156;2023-05-29T01:44:40;20.50;99.90
16114;DHT22;8161;-33.910;151.156;2023-05-29T01:47:11;20.70;99.90
16114;DHT22;8161;-33.910;151.156;2023-05-29T01:49:39;20.70;99.90
16114;DHT22;8161;-33.910;151.156;2023-05-29T01:52:07;20.70;99.90
16114;DHT22;8161;-33.910;151.156;2023-05-29T01:54:37;20.70;99.90
16114;DHT22;8161;-33.910;151.156;2023-05-29T01:57:05;20.40;99.90
16114;DHT22;8161;-33.910;151.156;2023-05-29T01:59:34;20.60;99.90
16114;DHT22;8161;-33.910;151.156;2023-05-29T02:02:07;20.80;99.90
16114;DHT22;8161;-33.910;151.156;2023-05-29T02:04:37;21.10;99.90
16114;DHT22;8161;-33.910;151.156;2023-05-29T02:07:05;20.60;99.90
16114;DHT22;8161;-33.910;151.156;2023-05-29T02:09:34;21.20;99.90
16114;DHT22;8161;-33.910;151.156;2023-05-29T02:12:01;20.70;99.90
16114;DHT22;8161;-33.910;151.156;2023-05-29T02:14:29;20.70;99.90
16114;DHT22;8161;-33.910;151.156;2023-05-29T02:16:58;20.90;99.90
16114;DHT22;8161;-33.910;151.156;2023-05-29T02:19:28;20.70;99.90
16114;DHT22;8161;-33.910;151.156;2023-05-29T02:21:55;21.10;99.90
16114;DHT22;8161;-33.910;151.156;2023-05-29T02:24:22;21.00;99.90
16114;DHT22;8161;-33.910;151.156;2023-05-29T02:26:50;21.10;99.90
16114;DHT22;8161;-33.910;151.156;2023-05-29T02:29:18;21.10;99.90
16114;DHT22;8161;-33.910;151.156;2023-05-29T02:31:48;21.20;99.90
16114;DHT22;8161;-33.910;151.156;2023-05-29T02:34:15;21.00;99.90
16114;DHT22;8161;-33.910;151.156;2023-05-29T02:39:09;21.40;99.90
16114;DHT22;8161;-33.910;151.156;2023-05-29T02:41:37;21.40;99.90
16114;DHT22;8161;-33.910;151.156;2023-05-29T02:44:04;21.30;99.90
16114;DHT22;8161;-33.910;151.156;2023-05-29T02:46:32;21.30;99.90
16114;DHT22;8161;-33.910;151.156;2023-05-29T02:48:59;20.90;99.90
16114;DHT22;8161;-33.910;151.156;2023-05-29T02:51:26;20.90;99.90
16114;DHT22;8161;-33.910;151.156;2023-05-29T02:58:51;21.30;99.90
16114;DHT22;8161;-33.910;151.156;2023-05-29T03:01:18;20.90;99.90
16114;DHT22;8161;-33.910;151.156;2023-05-29T03:03:46;21.10;99.90
16114;DHT22;8161;-33.910;151.156;2023-05-29T03:06:13;20.90;99.90
16114;DHT22;8161;-33.910;151.156;2023-05-29T03:11:12;21.10;99.90
16114;DHT22;8161;-33.910;151.156;2023-05-29T03:13:40;21.20;99.90
16114;DHT22;8161;-33.910;151.156;2023-05-29T03:16:07;20.60;99.90
16114;DHT22;8161;-33.910;151.156;2023-05-29T03:18:35;21.20;99.90
16114;DHT22;8161;-33.910;151.156;2023-05-29T03:23:29;21.20;99.90
16114;DHT22;8161;-33.910;151.156;2023-05-29T03:25:56;21.60;99.90
16114;DHT22;8161;-33.910;151.156;2023-05-29T03:28:24;21.80;99.90
16114;DHT22;8161;-33.910;151.156;2023-05-29T03:30:51;21.50;99.90
16114;DHT22;8161;-33.910;151.156;2023-05-29T03:33:18;22.10;99.90
16114;DHT22;8161;-33.910;151.156;2023-05-29T03:35:46;21.50;99.90
16114;DHT22;8161;-33.910;151.156;2023-05-29T03:38:13;21.70;99.90
16114;DHT22;8161;-33.910;151.156;2023-05-29T03:43:08;21.30;99.90
16114;DHT22;8161;-33.910;151.156;2023-05-29T03:45:35;21.30;99.90
16114;DHT22;8161;-33.910;151.156;2023-05-29T03:48:02;21.80;99.90
16114;DHT22;8161;-33.910;151.156;2023-05-29T03:50:30;21.50;99.90
16114;DHT22;8161;-33.910;151.156;2023-05-29T03:52:57;21.80;99.90
16114;DHT22;8161;-33.910;151.156;2023-05-29T03:55:26;21.40;99.90
16114;DHT22;8161;-33.910;151.156;2023-05-29T04:02:49;21.40;99.90
16114;DHT22;8161;-33.910;151.156;2023-05-29T04:05:16;21.30;99.90
16114;DHT22;8161;-33.910;151.156;2023-05-29T04:07:43;22.00;99.90
16114;DHT22;8161;-33.910;151.156;2023-05-29T04:10:11;21.60;99.90
16114;DHT22;8161;-33.910;151.156;2023-05-29T04:15:06;21.40;99.90
16114;DHT22;8161;-33.910;151.156;2023-05-29T04:17:34;21.30;99.90
16114;DHT22;8161;-33.910;151.156;2023-05-29T04:20:01;21.20;99.90
16114;DHT22;8161;-33.910;151.156;2023-05-29T04:22:37;21.40;99.90
16114;DHT22;8161;-33.910;151.156;2023-05-29T04:25:05;21.80;99.90
16114;DHT22;8161;-33.910;151.156;2023-05-29T04:27:32;21.40;99.90
16114;DHT22;8161;-33.910;151.156;2023-05-29T04:30:05;21.60;99.90
16114;DHT22;8161;-33.910;151.156;2023-05-29T04:32:35;21.90;99.90
16114;DHT22;8161;-33.910;151.156;2023-05-29T04:35:03;21.20;99.90
16114;DHT22;8161;-33.910;151.156;2023-05-29T04:37:31;21.30;99.90
16114;DHT22;8161;-33.910;151.156;2023-05-29T04:42:36;21.10;99.90
16114;DHT22;8161;-33.910;151.156;2023-05-29T04:45:04;21.00;99.90
16114;DHT22;8161;-33.910;151.156;2023-05-29T04:47:36;21.10;99.90
16114;DHT22;8161;-33.910;151.156;2023-05-29T04:50:11;21.30;99.90
16114;DHT22;8161;-33.910;151.156;2023-05-29T04:52:39;21.00;99.90
16114;DHT22;8161;-33.910;151.156;2023-05-29T04:55:07;21.10;99.90
16114;DHT22;8161;-33.910;151.156;2023-05-29T04:57:34;21.00;99.90
16114;DHT22;8161;-33.910;151.156;2023-05-29T05:00:02;20.90;99.90
16114;DHT22;8161;-33.910;151.156;2023-05-29T05:02:33;21.00;99.90
16114;DHT22;8161;-33.910;151.156;2023-05-29T05:05:00;20.80;99.90
16114;DHT22;8161;-33.910;151.156;2023-05-29T05:07:28;21.00;99.90
16114;DHT22;8161;-33.910;151.156;2023-05-29T05:14:49;20.90;99.90
16114;DHT22;8161;-33.910;151.156;2023-05-29T05:17:17;20.70;99.90
16114;DHT22;8161;-33.910;151.156;2023-05-29T05:19:44;21.10;99.90
16114;DHT22;8161;-33.910;151.156;2023-05-29T05:22:11;21.00;99.90
16114;DHT22;8161;-33.910;151.156;2023-05-29T05:24:38;20.60;99.90
16114;DHT22;8161;-33.910;151.156;2023-05-29T05:27:08;20.80;99.90
16114;DHT22;8161;-33.910;151.156;2023-05-29T05:32:03;20.80;99.90
16114;DHT22;8161;-33.910;151.156;2023-05-29T05:36:58;20.50;99.90
16114;DHT22;8161;-33.910;151.156;2023-05-29T05:44:20;20.10;99.90
16114;DHT22;8161;-33.910;151.156;2023-05-29T05:46:47;20.60;99.90
16114;DHT22;8161;-33.910;151.156;2023-05-29T05:49:14;20.10;99.90
16114;DHT22;8161;-33.910;151.156;2023-05-29T05:51:42;20.50;99.90
16114;DHT22;8161;-33.910;151.156;2023-05-29T05:54:09;19.90;99.90
16114;DHT22;8161;-33.910;151.156;2023-05-29T05:56:36;20.60;99.90
16114;DHT22;8161;-33.910;151.156;2023-05-29T05:59:04;20.20;99.90
16114;DHT22;8161;-33.910;151.156;2023-05-29T06:01:32;19.40;99.90
16114;DHT22;8161;-33.910;151.156;2023-05-29T06:03:59;20.30;99.90
16114;DHT22;8161;-33.910;151.156;2023-05-29T06:06:31;19.40;99.90
16114;DHT22;8161;-33.910;151.156;2023-05-29T06:08:59;19.30;99.90
16114;DHT22;8161;-33.910;151.156;2023-05-29T06:13:54;20.30;99.90
16114;DHT22;8161;-33.910;151.156;2023-05-29T06:16:27;19.40;99.90
16114;DHT22;8161;-33.910;151.156;2023-05-29T06:21:22;19.50;99.90
16114;DHT22;8161;-33.910;151.156;2023-05-29T06:26:16;19.70;99.90
16114;DHT22;8161;-33.910;151.156;2023-05-29T06:28:44;19.50;99.90
16114;DHT22;8161;-33.910;151.156;2023-05-29T06:31:14;19.20;99.90
16114;DHT22;8161;-33.910;151.156;2023-05-29T06:33:42;19.30;99.90
16114;DHT22;8161;-33.910;151.156;2023-05-29T06:36:09;19.50;99.90
16114;DHT22;8161;-33.910;151.156;2023-05-29T06:38:37;19.20;99.90
16114;DHT22;8161;-33.910;151.156;2023-05-29T06:45:58;18.70;99.90
16114;DHT22;8161;-33.910;151.156;2023-05-29T06:48:26;18.40;99.90
16114;DHT22;8161;-33.910;151.156;2023-05-29T06:53:20;18.90;99.90
16114;DHT22;8161;-33.910;151.156;2023-05-29T06:58:14;18.20;99.90
16114;DHT22;8161;-33.910;151.156;2023-05-29T07:03:52;18.70;99.90
16114;DHT22;8161;-33.910;151.156;2023-05-29T07:06:20;18.60;99.90
16114;DHT22;8161;-33.910;151.156;2023-05-29T07:13:44;18.50;99.90
16114;DHT22;8161;-33.910;151.156;2023-05-29T07:16:12;18.30;99.90
16114;DHT22;8161;-33.910;151.156;2023-05-29T07:18:39;18.10;99.90
16114;DHT22;8161;-33.910;151.156;2023-05-29T07:21:06;18.10;99.90
16114;DHT22;8161;-33.910;151.156;2023-05-29T07:28:28;18.20;99.90
16114;DHT22;8161;-33.910;151.156;2023-05-29T07:30:55;18.20;99.90
16114;DHT22;8161;-33.910;151.156;2023-05-29T07:33:22;18.00;99.90
16114;DHT22;8161;-33.910;151.156;2023-05-29T07:35:50;18.00;99.90
16114;DHT22;8161;-33.910;151.156;2023-05-29T07:38:17;17.50;99.90
16114;DHT22;8161;-33.910;151.156;2023-05-29T07:43:15;17.50;99.90
16114;DHT22;8161;-33.910;151.156;2023-05-29T07:45:42;17.30;99.90
16114;DHT22;8161;-33.910;151.156;2023-05-29T07:53:04;17.40;99.90
16114;DHT22;8161;-33.910;151.156;2023-05-29T08:00:26;17.60;99.90
16114;DHT22;8161;-33.910;151.156;2023-05-29T08:02:54;17.30;99.90
16114;DHT22;8161;-33.910;151.156;2023-05-29T08:07:51;17.50;99.90
16114;DHT22;8161;-33.910;151.156;2023-05-29T08:10:19;17.60;99.90
16114;DHT22;8161;-33.910;151.156;2023-05-29T08:12:46;17.20;99.90
16114;DHT22;8161;-33.910;151.156;2023-05-29T08:17:43;17.30;99.90
16114;DHT22;8161;-33.910;151.156;2023-05-29T08:20:10;17.40;99.90
16114;DHT22;8161;-33.910;151.156;2023-05-29T08:22:37;17.60;99.90
16114;DHT22;8161;-33.910;151.156;2023-05-29T08:25:05;16.90;99.90
16114;DHT22;8161;-33.910;151.156;2023-05-29T08:30:05;17.30;99.90
16114;DHT22;8161;-33.910;151.156;2023-05-29T08:32:32;17.30;99.90
16114;DHT22;8161;-33.910;151.156;2023-05-29T08:35:00;16.90;99.90
16114;DHT22;8161;-33.910;151.156;2023-05-29T08:37:27;17.30;99.90
16114;DHT22;8161;-33.910;151.156;2023-05-29T08:42:32;17.40;99.90
16114;DHT22;8161;-33.910;151.156;2023-05-29T08:45:03;17.10;99.90
16114;DHT22;8161;-33.910;151.156;2023-05-29T08:47:34;17.50;99.90
16114;DHT22;8161;-33.910;151.156;2023-05-29T08:50:03;17.40;99.90
16114;DHT22;8161;-33.910;151.156;2023-05-29T08:52:34;17.20;99.90
16114;DHT22;8161;-33.910;151.156;2023-05-29T08:55:06;17.40;99.90
16114;DHT22;8161;-33.910;151.156;2023-05-29T08:57:35;16.60;99.90
16114;DHT22;8161;-33.910;151.156;2023-05-29T09:00:05;16.80;99.90
16114;DHT22;8161;-33.910;151.156;2023-05-29T09:02:44;17.10;99.90
16114;DHT22;8161;-33.910;151.156;2023-05-29T09:05:12;16.60;99.90
16114;DHT22;8161;-33.910;151.156;2023-05-29T09:07:40;17.00;99.90
16114;DHT22;8161;-33.910;151.156;2023-05-29T09:10:08;16.80;99.90
16114;DHT22;8161;-33.910;151.156;2023-05-29T09:12:37;17.10;99.90
16114;DHT22;8161;-33.910;151.156;2023-05-29T09:15:18;16.40;99.90
16114;DHT22;8161;-33.910;151.156;2023-05-29T09:17:51;16.20;99.90
16114;DHT22;8161;-33.910;151.156;2023-05-29T09:20:22;16.30;99.90
16114;DHT22;8161;-33.910;151.156;2023-05-29T09:25:25;16.60;99.90
16114;DHT22;8161;-33.910;151.156;2023-05-29T09:30:38;16.40;99.90
16114;DHT22;8161;-33.910;151.156;2023-05-29T09:35:39;16.40;99.90
16114;DHT22;8161;-33.910;151.156;2023-05-29T09:38:11;16.60;99.90
16114;DHT22;8161;-33.910;151.156;2023-05-29T09:40:40;16.40;99.90
16114;DHT22;8161;-33.910;151.156;2023-05-29T09:43:15;16.10;99.90
16114;DHT22;8161;-33.910;151.156;2023-05-29T09:45:47;16.00;99.90
16114;DHT22;8161;-33.910;151.156;2023-05-29T09:48:22;16.00;99.90
16114;DHT22;8161;-33.910;151.156;2023-05-29T09:50:50;15.80;99.90
16114;DHT22;8161;-33.910;151.156;2023-05-29T09:58:24;16.20;99.90
16114;DHT22;8161;-33.910;151.156;2023-05-29T10:00:52;16.20;99.90
16114;DHT22;8161;-33.910;151.156;2023-05-29T10:03:20;16.40;99.90
16114;DHT22;8161;-33.910;151.156;2023-05-29T10:05:50;16.20;99.90
16114;DHT22;8161;-33.910;151.156;2023-05-29T10:08:20;16.10;99.90
16114;DHT22;8161;-33.910;151.156;2023-05-29T10:11:01;16.00;99.90
16114;DHT22;8161;-33.910;151.156;2023-05-29T10:13:33;15.60;99.90
16114;DHT22;8161;-33.910;151.156;2023-05-29T10:16:06;15.50;99.90
16114;DHT22;8161;-33.910;151.156;2023-05-29T10:19:00;15.90;99.90
16114;DHT22;8161;-33.910;151.156;2023-05-29T10:21:28;15.40;99.90
16114;DHT22;8161;-33.910;151.156;2023-05-29T10:23:56;15.40;99.90
16114;DHT22;8161;-33.910;151.156;2023-05-29T10:26:28;15.40;99.90
16114;DHT22;8161;-33.910;151.156;2023-05-29T10:40:14;15.00;99.90
16114;DHT22;8161;-33.910;151.156;2023-05-29T10:42:46;14.60;99.90
16114;DHT22;8161;-33.910;151.156;2023-05-29T10:50:46;14.70;99.90
16114;DHT22;8161;-33.910;151.156;2023-05-29T10:53:31;14.90;99.90
16114;DHT22;8161;-33.910;151.156;2023-05-29T10:56:01;14.60;99.90
16114;DHT22;8161;-33.910;151.156;2023-05-29T10:58:30;15.00;99.90
16114;DHT22;8161;-33.910;151.156;2023-05-29T11:00:58;14.60;99.90
16114;DHT22;8161;-33.910;151.156;2023-05-29T11:03:30;14.10;99.90
16114;DHT22;8161;-33.910;151.156;2023-05-29T11:08:45;14.30;99.90
16114;DHT22;8161;-33.910;151.156;2023-05-29T11:11:34;14.40;99.90
16114;DHT22;8161;-33.910;151.156;2023-05-29T11:14:07;14.40;99.90
16114;DHT22;8161;-33.910;151.156;2023-05-29T11:19:08;14.10;99.90
16114;DHT22;8161;-33.910;151.156;2023-05-29T11:24:26;13.90;99.90
16114;DHT22;8161;-33.910;151.156;2023-05-29T11:26:57;14.50;99.90
16114;DHT22;8161;-33.910;151.156;2023-05-29T11:29:30;14.50;99.90
16114;DHT22;8161;-33.910;151.156;2023-05-29T11:32:05;14.30;99.90
16114;DHT22;8161;-33.910;151.156;2023-05-29T11:37:06;14.10;99.90
16114;DHT22;8161;-33.910;151.156;2023-05-29T11:39:37;14.50;99.90
16114;DHT22;8161;-33.910;151.156;2023-05-29T11:42:05;14.20;99.90
16114;DHT22;8161;-33.910;151.156;2023-05-29T11:44:34;14.30;99.90
16114;DHT22;8161;-33.910;151.156;2023-05-29T11:47:02;14.70;99.90
16114;DHT22;8161;-33.910;151.156;2023-05-29T11:49:30;14.30;99.90
16114;DHT22;8161;-33.910;151.156;2023-05-29T11:52:13;14.50;99.90
16114;DHT22;8161;-33.910;151.156;2023-05-29T11:54:41;15.20;99.90
16114;DHT22;8161;-33.910;151.156;2023-05-29T11:57:20;14.90;99.90
16114;DHT22;8161;-33.910;151.156;2023-05-29T11:59:51;14.80;99.90
16114;DHT22;8161;-33.910;151.156;2023-05-29T12:02:18;14.70;99.90
16114;DHT22;8161;-33.910;151.156;2023-05-29T12:07:27;14.80;99.90
16114;DHT22;8161;-33.910;151.156;2023-05-29T12:09:55;15.00;99.90
16114;DHT22;8161;-33.910;151.156;2023-05-29T12:12:27;14.80;99.90
16114;DHT22;8161;-33.910;151.156;2023-05-29T12:14:56;14.80;99.90
16114;DHT22;8161;-33.910;151.156;2023-05-29T12:17:23;14.70;99.90
16114;DHT22;8161;-33.910;151.156;2023-05-29T12:19:52;14.60;99.90
16114;DHT22;8161;-33.910;151.156;2023-05-29T12:22:34;14.30;99.90
16114;DHT22;8161;-33.910;151.156;2023-05-29T12:25:17;14.50;99.90
16114;DHT22;8161;-33.910;151.156;2023-05-29T12:27:46;14.30;99.90
16114;DHT22;8161;-33.910;151.156;2023-05-29T12:32:49;14.30;99.90
16114;DHT22;8161;-33.910;151.156;2023-05-29T12:37:56;14.70;99.90
16114;DHT22;8161;-33.910;151.156;2023-05-29T12:40:30;14.40;99.90
16114;DHT22;8161;-33.910;151.156;2023-05-29T12:43:08;14.20;99.90
16114;DHT22;8161;-33.910;151.156;2023-05-29T12:45:36;14.20;99.90
16114;DHT22;8161;-33.910;151.156;2023-05-29T12:48:07;14.30;99.90
16114;DHT22;8161;-33.910;151.156;2023-05-29T12:50:40;14.20;99.90
16114;DHT22;8161;-33.910;151.156;2023-05-29T12:53:12;12.90;99.90
16114;DHT22;8161;-33.910;151.156;2023-05-29T12:55:46;14.60;99.90
16114;DHT22;8161;-33.910;151.156;2023-05-29T12:58:14;14.30;99.90
16114;DHT22;8161;-33.910;151.156;2023-05-29T13:00:45;14.30;99.90
16114;DHT22;8161;-33.910;151.156;2023-05-29T13:03:13;14.30;99.90
16114;DHT22;8161;-33.910;151.156;2023-05-29T13:08:08;14.50;99.90
16114;DHT22;8161;-33.910;151.156;2023-05-29T13:10:35;14.60;99.90
16114;DHT22;8161;-33.910;151.156;2023-05-29T13:13:03;14.20;99.90
16114;DHT22;8161;-33.910;151.156;2023-05-29T13:15:30;14.30;99.90
16114;DHT22;8161;-33.910;151.156;2023-05-29T13:17:59;14.20;99.90
16114;DHT22;8161;-33.910;151.156;2023-05-29T13:22:53;13.90;99.90
16114;DHT22;8161;-33.910;151.156;2023-05-29T13:25:21;14.00;99.90
16114;DHT22;8161;-33.910;151.156;2023-05-29T13:27:50;13.60;99.90
16114;DHT22;8161;-33.910;151.156;2023-05-29T13:30:18;14.10;99.90
16114;DHT22;8161;-33.910;151.156;2023-05-29T13:32:45;13.50;99.90
16114;DHT22;8161;-33.910;151.156;2023-05-29T13:35:12;14.00;99.90
16114;DHT22;8161;-33.910;151.156;2023-05-29T13:37:40;13.10;99.90
16114;DHT22;8161;-33.910;151.156;2023-05-29T13:40:07;13.70;99.90
16114;DHT22;8161;-33.910;151.156;2023-05-29T13:42:40;13.20;99.90
16114;DHT22;8161;-33.910;151.156;2023-05-29T13:45:08;13.80;99.90
16114;DHT22;8161;-33.910;151.156;2023-05-29T13:47:36;13.20;99.90
16114;DHT22;8161;-33.910;151.156;2023-05-29T13:50:03;13.20;99.90
16114;DHT22;8161;-33.910;151.156;2023-05-29T13:52:32;13.70;99.90
16114;DHT22;8161;-33.910;151.156;2023-05-29T13:59:58;13.40;99.90
16114;DHT22;8161;-33.910;151.156;2023-05-29T14:02:28;13.60;99.90
16114;DHT22;8161;-33.910;151.156;2023-05-29T14:04:55;13.80;99.90
16114;DHT22;8161;-33.910;151.156;2023-05-29T14:09:51;13.40;99.90
16114;DHT22;8161;-33.910;151.156;2023-05-29T14:14:45;14.10;99.90
16114;DHT22;8161;-33.910;151.156;2023-05-29T14:17:17;14.10;99.90
16114;DHT22;8161;-33.910;151.156;2023-05-29T14:19:44;14.20;99.90
16114;DHT22;8161;-33.910;151.156;2023-05-29T14:22:14;13.40;99.90
16114;DHT22;8161;-33.910;151.156;2023-05-29T14:24:41;13.30;99.90
16114;DHT22;8161;-33.910;151.156;2023-05-29T14:32:03;14.00;99.90
16114;DHT22;8161;-33.910;151.156;2023-05-29T14:34:30;13.80;99.90
16114;DHT22;8161;-33.910;151.156;2023-05-29T14:39:25;14.00;99.90
16114;DHT22;8161;-33.910;151.156;2023-05-29T14:44:24;13.40;99.90
16114;DHT22;8161;-33.910;151.156;2023-05-29T14:49:19;13.30;99.90
16114;DHT22;8161;-33.910;151.156;2023-05-29T14:51:47;13.40;99.90
16114;DHT22;8161;-33.910;151.156;2023-05-29T14:56:42;12.80;99.90
16114;DHT22;8161;-33.910;151.156;2023-05-29T14:59:09;13.50;99.90
16114;DHT22;8161;-33.910;151.156;2023-05-29T15:01:36;13.50;99.90
16114;DHT22;8161;-33.910;151.156;2023-05-29T15:04:04;13.30;99.90
16114;DHT22;8161;-33.910;151.156;2023-05-29T15:06:32;12.90;99.90
16114;DHT22;8161;-33.910;151.156;2023-05-29T15:08:59;13.50;99.90
16114;DHT22;8161;-33.910;151.156;2023-05-29T15:11:29;13.30;99.90
16114;DHT22;8161;-33.910;151.156;2023-05-29T15:13:57;13.00;99.90
16114;DHT22;8161;-33.910;151.156;2023-05-29T15:21:19;13.00;99.90
16114;DHT22;8161;-33.910;151.156;2023-05-29T15:26:15;12.60;99.90
16114;DHT22;8161;-33.910;151.156;2023-05-29T15:28:42;13.10;99.90
16114;DHT22;8161;-33.910;151.156;2023-05-29T15:33:36;12.60;99.90
16114;DHT22;8161;-33.910;151.156;2023-05-29T15:36:04;13.30;99.90
16114;DHT22;8161;-33.910;151.156;2023-05-29T15:38:32;12.70;99.90
16114;DHT22;8161;-33.910;151.156;2023-05-29T15:40:59;13.10;99.90
16114;DHT22;8161;-33.910;151.156;2023-05-29T15:43:26;13.00;99.90
16114;DHT22;8161;-33.910;151.156;2023-05-29T15:45:54;12.80;99.90
16114;DHT22;8161;-33.910;151.156;2023-05-29T15:53:15;13.20;99.90
16114;DHT22;8161;-33.910;151.156;2023-05-29T15:55:42;13.40;99.90
16114;DHT22;8161;-33.910;151.156;2023-05-29T16:00:37;13.00;99.90
16114;DHT22;8161;-33.910;151.156;2023-05-29T16:03:05;13.30;99.90
16114;DHT22;8161;-33.910;151.156;2023-05-29T16:08:03;12.70;99.90
16114;DHT22;8161;-33.910;151.156;2023-05-29T16:10:30;13.20;99.90
16114;DHT22;8161;-33.910;151.156;2023-05-29T16:12:57;13.10;99.90
16114;DHT22;8161;-33.910;151.156;2023-05-29T16:15:25;12.60;99.90
16114;DHT22;8161;-33.910;151.156;2023-05-29T16:20:19;12.60;99.90
16114;DHT22;8161;-33.910;151.156;2023-05-29T16:27:42;13.00;99.90
16114;DHT22;8161;-33.910;151.156;2023-05-29T16:30:09;13.30;99.90
16114;DHT22;8161;-33.910;151.156;2023-05-29T16:35:04;13.10;99.90
16114;DHT22;8161;-33.910;151.156;2023-05-29T16:37:34;12.90;99.90
16114;DHT22;8161;-33.910;151.156;2023-05-29T16:40:02;12.70;99.90
16114;DHT22;8161;-33.910;151.156;2023-05-29T16:42:29;12.90;99.90
16114;DHT22;8161;-33.910;151.156;2023-05-29T16:44:56;12.80;99.90
16114;DHT22;8161;-33.910;151.156;2023-05-29T16:49:51;13.10;99.90
16114;DHT22;8161;-33.910;151.156;2023-05-29T16:52:20;12.70;99.90
16114;DHT22;8161;-33.910;151.156;2023-05-29T16:57:15;12.80;99.90
16114;DHT22;8161;-33.910;151.156;2023-05-29T16:59:47;13.00;99.90
16114;DHT22;8161;-33.910;151.156;2023-05-29T17:02:16;13.10;99.90
16114;DHT22;8161;-33.910;151.156;2023-05-29T17:04:46;13.10;99.90
16114;DHT22;8161;-33.910;151.156;2023-05-29T17:07:14;13.10;99.90
16114;DHT22;8161;-33.910;151.156;2023-05-29T17:14:36;13.10;99.90
16114;DHT22;8161;-33.910;151.156;2023-05-29T17:17:03;13.00;99.90
16114;DHT22;8161;-33.910;151.156;2023-05-29T17:19:31;12.70;99.90
16114;DHT22;8161;-33.910;151.156;2023-05-29T17:21:58;12.40;99.90
16114;DHT22;8161;-33.910;151.156;2023-05-29T17:26:57;12.80;99.90
16114;DHT22;8161;-33.910;151.156;2023-05-29T17:29:25;13.00;99.90
16114;DHT22;8161;-33.910;151.156;2023-05-29T17:31:52;12.40;99.90
16114;DHT22;8161;-33.910;151.156;2023-05-29T17:36:46;12.90;99.90
16114;DHT22;8161;-33.910;151.156;2023-05-29T17:39:13;12.90;99.90
16114;DHT22;8161;-33.910;151.156;2023-05-29T17:41:42;12.90;99.90
16114;DHT22;8161;-33.910;151.156;2023-05-29T17:44:12;12.90;99.90
16114;DHT22;8161;-33.910;151.156;2023-05-29T17:49:09;12.60;99.90
16114;DHT22;8161;-33.910;151.156;2023-05-29T17:54:05;12.60;99.90
16114;DHT22;8161;-33.910;151.156;2023-05-29T17:56:39;12.90;99.90
16114;DHT22;8161;-33.910;151.156;2023-05-29T17:59:07;12.50;99.90
16114;DHT22;8161;-33.910;151.156;2023-05-29T18:01:34;12.80;99.90
16114;DHT22;8161;-33.910;151.156;2023-05-29T18:04:02;12.70;99.90
16114;DHT22;8161;-33.910;151.156;2023-05-29T18:06:30;12.20;99.90
16114;DHT22;8161;-33.910;151.156;2023-05-29T18:08:57;12.60;99.90
16114;DHT22;8161;-33.910;151.156;2023-05-29T18:11:25;12.60;99.90
16114;DHT22;8161;-33.910;151.156;2023-05-29T18:16:20;12.70;99.90
16114;DHT22;8161;-33.910;151.156;2023-05-29T18:18:51;12.60;99.90
16114;DHT22;8161;-33.910;151.156;2023-05-29T18:23:49;12.80;99.90
16114;DHT22;8161;-33.910;151.156;2023-05-29T18:26:17;12.40;99.90
16114;DHT22;8161;-33.910;151.156;2023-05-29T18:28:44;12.50;99.90
16114;DHT22;8161;-33.910;151.156;2023-05-29T18:31:12;12.40;99.90
16114;DHT22;8161;-33.910;151.156;2023-05-29T18:36:16;12.00;99.90
16114;DHT22;8161;-33.910;151.156;2023-05-29T18:41:11;12.60;99.90
16114;DHT22;8161;-33.910;151.156;2023-05-29T18:43:38;12.30;99.90
16114;DHT22;8161;-33.910;151.156;2023-05-29T18:46:05;12.00;99.90
16114;DHT22;8161;-33.910;151.156;2023-05-29T18:48:32;12.60;99.90
16114;DHT22;8161;-33.910;151.156;2023-05-29T18:51:00;12.20;99.90
16114;DHT22;8161;-33.910;151.156;2023-05-29T18:53:28;12.30;99.90
16114;DHT22;8161;-33.910;151.156;2023-05-29T18:55:56;12.40;99.90
16114;DHT22;8161;-33.910;151.156;2023-05-29T18:58:23;12.10;99.90
16114;DHT22;8161;-33.910;151.156;2023-05-29T19:00:50;12.40;99.90
16114;DHT22;8161;-33.910;151.156;2023-05-29T19:05:45;11.80;99.90
16114;DHT22;8161;-33.910;151.156;2023-05-29T19:08:12;11.90;99.90
16114;DHT22;8161;-33.910;151.156;2023-05-29T19:13:10;11.70;99.90
16114;DHT22;8161;-33.910;151.156;2023-05-29T19:15:37;11.50;99.90
16114;DHT22;8161;-33.910;151.156;2023-05-29T19:18:06;11.60;99.90
16114;DHT22;8161;-33.910;151.156;2023-05-29T19:20:34;11.90;99.90